Time;durP1;ratioP1;P1;durP2;ratioP2;P2;SDS_P1;SDS_P2;PMS_P1;PMS_P2;Temp;Humidity;BMP_temperature;BMP_pressure;BME280_temperature;BME280_humidity;BME280_pressure;Samples;Min_cycle;Max_cycle;Signal;HPM_P1;HPM_P2
2023/01/18 00:01:07;;;;;;;17.17;13.17;;;0.30;99.90;;;;;;5094346;28;20171;-52
2023/01/18 00:03:34;;;;;;;21.63;13.70;;;0.30;99.90;;;;;;5093821;28;20181;-52
2023/01/18 00:06:01;;;;;;;17.87;12.70;;;0.30;99.90;;;;;;5093875;28;20173;-53
2023/01/18 00:08:30;;;;;;;17.70;13.30;;;0.30;99.90;;;;;;5093722;28;20677;-54
2023/01/18 00:11:08;;;;;;;21.53;14.10;;;0.30;99.90;;;;;;5093778;28;20676;-52
2023/01/18 00:13:34;;;;;;;19.57;12.83;;;0.30;99.90;;;;;;5093767;28;20186;-53
2023/01/18 00:16:14;;;;;;;18.20;13.43;;;0.30;99.90;;;;;;5093656;28;20184;-53
2023/01/18 00:18:40;;;;;;;17.90;13.10;;;0.30;99.90;;;;;;5075773;28;20565;-53
2023/01/18 00:21:09;;;;;;;17.47;13.90;;;0.30;99.90;;;;;;5093594;28;20181;-54
2023/01/18 00:23:35;;;;;;;21.13;14.50;;;0.30;99.90;;;;;;5059014;28;20530;-51
2023/01/18 00:26:02;;;;;;;17.87;13.83;;;0.20;99.90;;;;;;5093449;28;20299;-53
2023/01/18 00:28:28;;;;;;;15.70;12.90;;;0.20;99.90;;;;;;5058947;28;20692;-53
2023/01/18 00:30:54;;;;;;;20.03;12.93;;;0.10;99.90;;;;;;5093617;28;20180;-52
2023/01/18 00:33:20;;;;;;;18.93;14.30;;;0.20;99.90;;;;;;5075341;28;20173;-53
2023/01/18 00:36:00;;;;;;;19.00;13.93;;;0.20;99.90;;;;;;5093430;28;20177;-54
2023/01/18 00:38:27;;;;;;;22.97;14.63;;;0.20;99.90;;;;;;5093604;28;20177;-53
2023/01/18 00:40:53;;;;;;;20.63;14.40;;;0.10;99.90;;;;;;5093447;28;20171;-54
2023/01/18 00:46:11;;;;;;;21.53;14.13;;;0.00;99.90;;;;;;5093654;28;20192;-52
2023/01/18 00:48:38;;;;;;;20.87;15.73;;;0.00;99.90;;;;;;5093498;28;20204;-53
2023/01/18 00:51:06;;;;;;;19.87;14.47;;;0.00;99.90;;;;;;5096181;28;20666;-54
2023/01/18 00:53:31;;;;;;;20.57;14.17;;;0.00;99.90;;;;;;5100122;28;20241;-53
2023/01/18 00:55:57;;;;;;;21.47;14.93;;;0.00;99.90;;;;;;5065398;28;20641;-50
2023/01/18 00:58:23;;;;;;;20.97;14.73;;;0.00;99.90;;;;;;5099943;28;20214;-52
2023/01/18 01:00:53;;;;;;;19.67;14.37;;;0.00;99.90;;;;;;5099869;28;20173;-51
2023/01/18 01:03:21;;;;;;;21.73;15.60;;;-0.10;99.90;;;;;;5100108;28;20188;-50
2023/01/18 01:08:32;;;;;;;20.67;14.23;;;-0.10;99.90;;;;;;5099872;28;20221;-54
2023/01/18 01:11:09;;;;;;;21.80;14.67;;;-0.10;99.90;;;;;;5099901;28;20176;-54
2023/01/18 01:27:19;;;;;;;22.00;15.40;;;-0.20;99.90;;;;;;5100081;28;20220;-54
2023/01/18 01:29:45;;;;;;;19.07;14.50;;;-0.20;99.90;;;;;;5099706;28;20225;-53
2023/01/18 01:32:10;;;;;;;21.13;14.50;;;-0.20;99.90;;;;;;5099653;28;20185;-54
2023/01/18 01:34:36;;;;;;;21.90;14.57;;;-0.20;99.90;;;;;;5081764;28;20579;-53
2023/01/18 01:37:03;;;;;;;23.27;14.80;;;-0.20;99.90;;;;;;5099792;28;20174;-53
2023/01/18 01:39:29;;;;;;;20.17;14.37;;;-0.20;99.90;;;;;;5099940;28;20185;-52
2023/01/18 01:41:55;;;;;;;21.90;14.53;;;-0.20;99.90;;;;;;5099447;28;20542;-51
2023/01/18 01:44:23;;;;;;;19.57;14.93;;;-0.20;99.90;;;;;;5099328;28;20193;-53
2023/01/18 01:46:54;;;;;;;22.33;15.03;;;-0.20;99.90;;;;;;5099461;28;20175;-53
2023/01/18 01:49:27;;;;;;;22.23;14.70;;;-0.20;99.90;;;;;;5099617;28;20236;-53
2023/01/18 01:52:09;;;;;;;19.87;13.80;;;-0.10;99.90;;;;;;5099623;28;20519;-54
2023/01/18 01:54:40;;;;;;;22.03;14.40;;;-0.20;99.90;;;;;;5099588;28;20169;-52
2023/01/18 01:57:24;;;;;;;17.00;13.70;;;-0.20;99.90;;;;;;5099388;28;20175;-53
2023/01/18 02:00:09;;;;;;;22.53;14.83;;;-0.20;99.90;;;;;;5099621;28;20169;-53
2023/01/18 02:02:36;;;;;;;21.00;14.00;;;-0.20;99.90;;;;;;5097363;28;20265;-53
2023/01/18 02:05:05;;;;;;;19.83;13.63;;;-0.20;99.90;;;;;;5096190;28;20189;-52
2023/01/18 02:07:31;;;;;;;20.17;14.37;;;-0.20;99.90;;;;;;5078241;28;20171;-52
2023/01/18 02:09:58;;;;;;;21.43;13.97;;;-0.20;99.90;;;;;;5096270;28;20211;-54
2023/01/18 02:12:24;;;;;;;20.00;14.47;;;-0.20;99.90;;;;;;5096205;28;20204;-51
2023/01/18 02:14:51;;;;;;;21.10;14.20;;;-0.20;99.90;;;;;;5095951;28;20645;-52
2023/01/18 02:17:29;;;;;;;19.30;13.97;;;-0.20;99.90;;;;;;5095961;28;20642;-53
2023/01/18 02:20:28;;;;;;;20.23;13.93;;;-0.20;99.90;;;;;;5095931;28;20181;-55
2023/01/18 02:23:11;;;;;;;18.80;14.43;;;-0.30;99.90;;;;;;5096022;28;20184;-53
2023/01/18 02:26:05;;;;;;;21.00;14.13;;;-0.30;99.90;;;;;;5095820;28;20654;-57
2023/01/18 02:28:32;;;;;;;19.83;14.47;;;-0.30;99.90;;;;;;5095946;28;20194;-53
2023/01/18 02:31:19;;;;;;;20.90;14.67;;;-0.40;99.90;;;;;;5095647;28;20181;-52
2023/01/18 02:33:59;;;;;;;21.37;15.07;;;-0.40;99.90;;;;;;5095862;28;20204;-53
2023/01/18 02:36:46;;;;;;;21.73;14.67;;;-0.40;99.90;;;;;;5095655;28;20184;-53
2023/01/18 02:39:30;;;;;;;22.00;14.67;;;-0.40;99.90;;;;;;5095867;28;20169;-53
2023/01/18 02:47:33;;;;;;;22.23;15.27;;;-0.40;99.90;;;;;;5095676;28;20219;-55
2023/01/18 02:49:58;;;;;;;20.87;14.40;;;-0.40;99.90;;;;;;5095556;28;20585;-53
2023/01/18 02:52:48;;;;;;;20.40;15.13;;;-0.30;99.90;;;;;;5095364;28;20181;-51
2023/01/18 02:55:42;;;;;;;19.03;14.10;;;-0.30;99.90;;;;;;5095299;28;20167;-55
2023/01/18 02:58:26;;;;;;;21.77;13.93;;;-0.30;99.90;;;;;;5095421;28;20526;-55
2023/01/18 03:01:21;;;;;;;17.57;13.37;;;-0.30;99.90;;;;;;5095111;28;20531;-52
2023/01/18 03:03:48;;;;;;;19.30;13.87;;;-0.30;99.90;;;;;;5095256;28;20172;-55
2023/01/18 03:06:14;;;;;;;19.07;13.90;;;-0.40;99.90;;;;;;5095266;28;20202;-54
2023/01/18 03:08:50;;;;;;;19.40;13.07;;;-0.40;99.90;;;;;;5095068;28;20229;-57
2023/01/18 03:11:32;;;;;;;18.20;13.53;;;-0.40;99.90;;;;;;5076982;28;20643;-52
2023/01/18 03:14:08;;;;;;;17.97;14.30;;;-0.30;99.90;;;;;;5094251;28;20222;-55
2023/01/18 03:17:07;;;;;;;18.47;13.80;;;-0.40;99.90;;;;;;5095355;28;20168;-54
2023/01/18 03:20:06;;;;;;;19.03;13.53;;;-0.30;99.90;;;;;;5094833;28;20501;-50
2023/01/18 03:25:41;;;;;;;20.23;13.83;;;-0.30;99.90;;;;;;5094379;28;20188;-52
2023/01/18 03:34:50;;;;;;;19.47;13.03;;;-0.40;99.90;;;;;;5094760;28;20188;-53
2023/01/18 03:37:26;;;;;;;16.87;13.57;;;-0.40;99.90;;;;;;5094377;28;20170;-53
2023/01/18 03:40:02;;;;;;;16.97;13.70;;;-0.40;99.90;;;;;;5094545;28;20206;-53
2023/01/18 03:42:54;;;;;;;15.83;12.33;;;-0.40;99.90;;;;;;5094437;28;20263;-53
2023/01/18 03:45:23;;;;;;;18.10;13.57;;;-0.40;99.90;;;;;;5076294;28;20182;-53
2023/01/18 03:47:49;;;;;;;19.50;13.53;;;-0.50;99.90;;;;;;5094196;28;20507;-54
2023/01/18 03:50:23;;;;;;;19.17;12.77;;;-0.40;99.90;;;;;;5094263;28;20205;-54
2023/01/18 03:52:54;;;;;;;16.53;13.27;;;-0.50;99.90;;;;;;5094119;28;20204;-54
2023/01/18 03:55:24;;;;;;;21.33;13.63;;;-0.40;99.90;;;;;;5094182;28;20169;-54
2023/01/18 03:57:56;;;;;;;18.73;12.83;;;-0.50;99.90;;;;;;5093906;28;20627;-54
2023/01/18 04:00:22;;;;;;;16.53;12.57;;;-0.50;99.90;;;;;;5094193;28;20594;-54
2023/01/18 04:02:49;;;;;;;17.20;13.17;;;-0.50;99.90;;;;;;5076155;28;20584;-54
2023/01/18 04:05:15;;;;;;;16.30;12.50;;;-0.40;99.90;;;;;;5075867;28;20170;-54
2023/01/18 04:07:42;;;;;;;18.50;13.00;;;-0.40;99.90;;;;;;5093934;28;20258;-54
2023/01/18 04:10:09;;;;;;;21.70;13.77;;;-0.50;99.90;;;;;;5059045;28;20201;-55
2023/01/18 04:12:34;;;;;;;19.00;13.10;;;-0.50;99.90;;;;;;5093625;28;20189;-53
2023/01/18 04:15:00;;;;;;;19.67;12.87;;;-0.50;99.90;;;;;;5093727;28;20185;-54
2023/01/18 04:17:26;;;;;;;18.67;12.93;;;-0.50;99.90;;;;;;5075803;28;20178;-55
2023/01/18 04:19:52;;;;;;;17.27;12.70;;;-0.50;99.90;;;;;;5093805;28;20182;-56
2023/01/18 04:22:18;;;;;;;19.53;12.87;;;-0.40;99.90;;;;;;5093743;28;20619;-54
2023/01/18 04:24:43;;;;;;;17.03;13.30;;;-0.50;99.90;;;;;;5093609;28;20257;-54
2023/01/18 04:27:09;;;;;;;16.30;12.30;;;-0.40;99.90;;;;;;5093353;28;20632;-55
2023/01/18 04:29:35;;;;;;;14.73;13.00;;;-0.40;99.90;;;;;;5093703;28;20201;-54
2023/01/18 04:32:01;;;;;;;16.23;11.80;;;-0.50;99.90;;;;;;5093612;28;20207;-55
2023/01/18 04:34:27;;;;;;;15.13;12.03;;;-0.50;99.90;;;;;;5093448;28;20182;-55
2023/01/18 04:36:52;;;;;;;16.87;12.83;;;-0.50;99.90;;;;;;5093481;28;20218;-55
2023/01/18 04:39:18;;;;;;;16.03;12.40;;;-0.50;99.90;;;;;;5093410;28;20185;-53
2023/01/18 04:41:44;;;;;;;17.43;12.73;;;-0.50;99.90;;;;;;5093348;28;20177;-53
2023/01/18 04:44:11;;;;;;;14.47;12.00;;;-0.50;99.90;;;;;;5093390;28;20546;-54
2023/01/18 04:46:37;;;;;;;17.60;13.00;;;-0.50;99.90;;;;;;5093418;28;20173;-53
2023/01/18 04:49:04;;;;;;;14.30;11.33;;;-0.60;99.90;;;;;;5093228;28;20190;-53
2023/01/18 04:51:30;;;;;;;16.77;12.37;;;-0.60;99.90;;;;;;5093254;28;20178;-51
2023/01/18 04:53:58;;;;;;;19.07;12.87;;;-0.60;99.90;;;;;;5075211;28;20634;-53
2023/01/18 04:56:24;;;;;;;15.50;12.57;;;-0.60;99.90;;;;;;5093238;28;20166;-52
2023/01/18 04:58:53;;;;;;;15.30;11.47;;;-0.60;99.90;;;;;;5093201;28;20201;-54
2023/01/18 05:01:20;;;;;;;16.10;11.40;;;-0.60;99.90;;;;;;5075164;28;20234;-52
2023/01/18 05:03:46;;;;;;;16.13;11.50;;;-0.60;99.90;;;;;;5093267;28;20170;-52
2023/01/18 05:06:14;;;;;;;16.50;11.40;;;-0.60;99.90;;;;;;5093114;28;20173;-54
2023/01/18 05:08:40;;;;;;;16.80;12.30;;;-0.50;99.90;;;;;;5092790;28;20728;-55
2023/01/18 05:11:09;;;;;;;15.30;12.00;;;-0.50;99.90;;;;;;5093211;28;20182;-54
2023/01/18 05:13:35;;;;;;;17.43;11.37;;;-0.40;99.90;;;;;;5093017;28;20614;-53
2023/01/18 05:16:02;;;;;;;14.97;11.57;;;-0.50;99.90;;;;;;5093221;28;20215;-52
2023/01/18 05:18:28;;;;;;;14.83;11.60;;;-0.50;99.90;;;;;;5074965;28;20170;-56
2023/01/18 05:20:54;;;;;;;18.33;12.43;;;-0.60;99.90;;;;;;5074873;28;20175;-54
2023/01/18 05:23:20;;;;;;;15.73;12.80;;;-0.50;99.90;;;;;;5092938;28;20178;-54
2023/01/18 05:25:50;;;;;;;16.13;11.63;;;-0.60;99.90;;;;;;5093237;28;20624;-53
2023/01/18 05:28:16;;;;;;;17.23;12.33;;;-0.70;99.90;;;;;;5092895;28;20174;-53
2023/01/18 05:30:42;;;;;;;17.73;11.63;;;-0.60;99.90;;;;;;5092746;28;20252;-54
2023/01/18 05:33:08;;;;;;;16.33;11.57;;;-0.70;99.90;;;;;;5092596;28;20182;-53
2023/01/18 05:35:34;;;;;;;15.53;11.17;;;-0.70;99.90;;;;;;5092769;28;20174;-54
2023/01/18 05:38:00;;;;;;;16.70;11.47;;;-0.70;99.90;;;;;;5094148;28;20185;-55
2023/01/18 05:40:26;;;;;;;14.43;11.00;;;-0.70;99.90;;;;;;5096716;28;20185;-54
2023/01/18 05:42:52;;;;;;;15.57;11.37;;;-0.60;99.90;;;;;;5096062;28;20194;-54
2023/01/18 05:45:19;;;;;;;14.83;10.83;;;-0.60;99.90;;;;;;5078749;28;20729;-54
2023/01/18 05:47:44;;;;;;;13.13;10.60;;;-0.50;99.90;;;;;;5096581;28;20169;-54
2023/01/18 05:50:11;;;;;;;14.47;11.30;;;-0.60;99.90;;;;;;5096399;28;20517;-52
2023/01/18 05:52:37;;;;;;;14.03;11.17;;;-0.60;99.90;;;;;;5096438;28;20185;-52
2023/01/18 05:55:03;;;;;;;13.37;10.37;;;-0.60;99.90;;;;;;5096505;28;20208;-54
2023/01/18 05:57:29;;;;;;;15.20;10.73;;;-0.50;99.90;;;;;;5096422;28;20182;-54
2023/01/18 05:59:54;;;;;;;15.63;10.87;;;-0.60;99.90;;;;;;5078211;28;20185;-55
2023/01/18 06:02:20;;;;;;;16.10;11.70;;;-0.60;99.90;;;;;;5096176;28;20175;-55
2023/01/18 06:04:46;;;;;;;16.83;11.50;;;-0.60;99.90;;;;;;5078296;28;20516;-53
2023/01/18 06:07:13;;;;;;;16.20;11.60;;;-0.60;99.90;;;;;;5096266;28;20651;-54
2023/01/18 06:09:39;;;;;;;14.87;11.60;;;-0.60;99.90;;;;;;5096125;28;20208;-56
2023/01/18 06:12:05;;;;;;;14.77;10.90;;;-0.60;99.90;;;;;;5095187;28;20221;-55
2023/01/18 06:14:31;;;;;;;15.67;11.47;;;-0.60;99.90;;;;;;5096075;28;20184;-54
2023/01/18 06:16:57;;;;;;;17.03;11.07;;;-0.60;99.90;;;;;;5096030;28;20565;-55
2023/01/18 06:19:23;;;;;;;14.73;11.00;;;-0.60;99.90;;;;;;5095983;28;20182;-55
2023/01/18 06:21:48;;;;;;;14.07;10.60;;;-0.60;99.90;;;;;;5096012;28;20196;-55
2023/01/18 06:24:14;;;;;;;15.93;10.50;;;-0.60;99.90;;;;;;5096211;28;20175;-55
2023/01/18 06:26:40;;;;;;;15.50;11.67;;;-0.60;99.90;;;;;;5096071;28;20177;-55
2023/01/18 06:29:06;;;;;;;13.47;10.67;;;-0.60;99.90;;;;;;5095750;28;20204;-54
2023/01/18 06:31:31;;;;;;;16.33;11.10;;;-0.50;99.90;;;;;;5095858;28;20182;-55
2023/01/18 06:33:57;;;;;;;16.23;11.27;;;-0.60;99.90;;;;;;5095680;28;20251;-55
2023/01/18 06:36:23;;;;;;;14.00;10.17;;;-0.60;99.90;;;;;;5095486;28;20191;-55
2023/01/18 06:38:48;;;;;;;13.83;10.10;;;-0.60;99.90;;;;;;5095945;28;20637;-54
2023/01/18 06:41:14;;;;;;;20.40;11.10;;;-0.50;99.90;;;;;;5095712;28;20258;-55
2023/01/18 06:43:40;;;;;;;15.20;11.37;;;-0.40;99.90;;;;;;5095350;28;20200;-55
2023/01/18 06:46:08;;;;;;;12.53;10.53;;;-0.40;99.90;;;;;;5095853;28;20193;-56
2023/01/18 06:48:34;;;;;;;13.60;10.73;;;-0.30;99.90;;;;;;5095035;28;20255;-53
2023/01/18 06:51:00;;;;;;;14.90;11.43;;;-0.40;99.90;;;;;;5095949;28;20219;-56
2023/01/18 06:53:25;;;;;;;17.17;11.70;;;-0.40;99.90;;;;;;5095412;28;20172;-55
2023/01/18 06:56:02;;;;;;;16.47;10.93;;;-0.30;99.90;;;;;;5095438;28;20202;-56
2023/01/18 06:58:31;;;;;;;13.60;10.73;;;-0.30;99.90;;;;;;5095394;28;20248;-56
2023/01/18 07:00:58;;;;;;;14.93;11.17;;;-0.30;99.90;;;;;;5095229;28;20175;-54
2023/01/18 07:03:25;;;;;;;11.57;10.07;;;-0.30;99.90;;;;;;5095063;28;20204;-55
2023/01/18 07:05:55;;;;;;;15.10;11.30;;;-0.30;99.90;;;;;;5095171;28;20177;-57
2023/01/18 07:08:22;;;;;;;14.33;10.40;;;-0.40;99.90;;;;;;5094998;28;20178;-55
2023/01/18 07:10:49;;;;;;;13.90;10.87;;;-0.40;99.90;;;;;;5095232;28;20203;-55
2023/01/18 07:13:15;;;;;;;14.47;11.20;;;-0.40;99.90;;;;;;5095298;28;20223;-55
2023/01/18 07:15:41;;;;;;;13.73;10.60;;;-0.30;99.90;;;;;;5095015;28;20215;-55
2023/01/18 07:18:06;;;;;;;14.70;10.30;;;-0.30;99.90;;;;;;5095071;28;20202;-55
2023/01/18 07:20:32;;;;;;;13.40;10.13;;;-0.30;99.90;;;;;;5094934;28;20595;-55
2023/01/18 07:22:58;;;;;;;12.70;10.23;;;-0.30;99.90;;;;;;5094941;28;20193;-55
2023/01/18 07:25:24;;;;;;;16.40;9.77;;;-0.40;99.90;;;;;;5094827;28;20543;-54
2023/01/18 07:27:50;;;;;;;11.87;9.93;;;-0.30;99.90;;;;;;5094850;28;20577;-55
2023/01/18 07:30:16;;;;;;;13.77;10.27;;;-0.30;99.90;;;;;;5076927;28;20217;-57
2023/01/18 07:32:50;;;;;;;14.87;10.13;;;-0.30;99.90;;;;;;5094663;28;20200;-55
2023/01/18 07:35:18;;;;;;;13.47;10.20;;;-0.30;99.90;;;;;;5094693;28;20257;-57
2023/01/18 07:37:51;;;;;;;12.43;9.90;;;-0.30;99.90;;;;;;5094794;28;20171;-54
2023/01/18 07:40:20;;;;;;;12.57;9.93;;;-0.40;99.90;;;;;;5094610;28;20178;-55
2023/01/18 07:42:46;;;;;;;12.63;10.27;;;-0.40;99.90;;;;;;5094387;28;20188;-56
2023/01/18 07:45:12;;;;;;;13.20;10.10;;;-0.30;99.90;;;;;;5094565;28;20192;-55
2023/01/18 07:47:44;;;;;;;15.27;10.70;;;-0.40;99.90;;;;;;5094370;28;20193;-56
2023/01/18 07:50:11;;;;;;;15.70;10.20;;;-0.40;99.90;;;;;;5094268;28;20209;-56
2023/01/18 07:52:36;;;;;;;14.83;10.77;;;-0.30;99.90;;;;;;5094236;28;20174;-56
2023/01/18 07:55:02;;;;;;;11.93;10.10;;;-0.30;99.90;;;;;;5094281;28;20182;-55
2023/01/18 07:57:28;;;;;;;14.20;10.20;;;-0.30;99.90;;;;;;5094069;28;20258;-56
2023/01/18 07:59:54;;;;;;;16.03;10.47;;;-0.30;99.90;;;;;;5075700;28;20205;-54
2023/01/18 08:02:20;;;;;;;19.60;11.23;;;-0.30;99.90;;;;;;5093989;28;20190;-55
2023/01/18 08:04:48;;;;;;;14.73;11.57;;;-0.30;99.90;;;;;;5094097;28;20177;-55
2023/01/18 08:07:16;;;;;;;13.53;10.93;;;-0.30;99.90;;;;;;5093965;28;20177;-55
2023/01/18 08:09:42;;;;;;;15.53;11.43;;;-0.30;99.90;;;;;;5093832;28;20538;-53
2023/01/18 08:12:12;;;;;;;15.40;11.67;;;-0.30;99.90;;;;;;5093841;28;20245;-55
2023/01/18 08:14:38;;;;;;;15.93;10.60;;;-0.30;99.90;;;;;;5093893;28;20189;-55
2023/01/18 08:17:05;;;;;;;14.37;11.00;;;-0.40;99.90;;;;;;5094001;28;20203;-55
2023/01/18 08:19:31;;;;;;;16.07;10.77;;;-0.30;99.90;;;;;;5094048;28;20192;-55
2023/01/18 08:21:56;;;;;;;18.40;11.87;;;-0.30;99.90;;;;;;5093843;28;20167;-55
2023/01/18 08:24:22;;;;;;;16.50;10.97;;;-0.30;99.90;;;;;;5093772;28;20542;-56
2023/01/18 08:26:48;;;;;;;14.47;11.07;;;-0.30;99.90;;;;;;5093788;28;20659;-54
2023/01/18 08:29:13;;;;;;;14.23;11.63;;;-0.30;99.90;;;;;;5093439;28;20213;-55
2023/01/18 08:31:39;;;;;;;15.23;11.67;;;-0.20;99.90;;;;;;5093729;28;20215;-57
2023/01/18 08:34:05;;;;;;;16.20;11.67;;;-0.30;99.90;;;;;;5093602;28;20181;-54
2023/01/18 08:36:30;;;;;;;15.37;11.50;;;-0.30;99.90;;;;;;5093609;28;20209;-55
2023/01/18 08:38:57;;;;;;;15.17;11.80;;;-0.20;99.90;;;;;;5093372;28;20192;-54
2023/01/18 08:41:27;;;;;;;16.43;11.20;;;-0.10;99.90;;;;;;5093446;28;20191;-55
2023/01/18 08:43:54;;;;;;;16.40;12.73;;;0.00;99.90;;;;;;5093430;28;20200;-56
2023/01/18 08:46:20;;;;;;;16.23;12.90;;;0.00;99.90;;;;;;5093480;28;20263;-55
2023/01/18 08:48:54;;;;;;;15.40;12.27;;;0.10;99.90;;;;;;5093605;28;20200;-55
2023/01/18 08:51:21;;;;;;;16.77;12.27;;;0.10;99.90;;;;;;5075130;28;20534;-55
2023/01/18 08:53:50;;;;;;;16.17;11.73;;;0.00;99.90;;;;;;5093272;28;20647;-55
2023/01/18 08:56:17;;;;;;;16.70;11.37;;;-0.10;99.90;;;;;;5093627;28;20177;-56
2023/01/18 08:58:42;;;;;;;15.60;11.40;;;0.00;99.90;;;;;;5093482;28;20181;-56
2023/01/18 09:01:09;;;;;;;19.20;11.43;;;0.10;99.90;;;;;;5093481;28;20512;-54
2023/01/18 09:03:36;;;;;;;19.77;11.80;;;0.10;99.90;;;;;;5093201;28;20580;-55
2023/01/18 09:06:04;;;;;;;19.23;12.37;;;0.20;99.90;;;;;;5093191;28;20230;-56
2023/01/18 09:08:33;;;;;;;17.97;11.80;;;0.20;99.90;;;;;;5093100;28;20211;-54
2023/01/18 09:11:03;;;;;;;16.13;11.90;;;0.30;99.90;;;;;;5093397;28;20191;-55
2023/01/18 09:13:30;;;;;;;15.27;12.37;;;0.40;99.90;;;;;;5097061;28;20189;-56
2023/01/18 09:16:00;;;;;;;16.97;12.23;;;0.50;99.90;;;;;;5097526;28;20268;-54
2023/01/18 09:18:26;;;;;;;14.73;11.93;;;0.60;99.90;;;;;;5097315;28;20184;-54
2023/01/18 09:20:53;;;;;;;17.97;12.47;;;0.70;99.90;;;;;;5097144;28;20172;-54
2023/01/18 09:23:19;;;;;;;16.57;12.20;;;0.70;99.90;;;;;;5097054;28;20534;-54
2023/01/18 09:25:45;;;;;;;16.17;12.30;;;0.80;99.90;;;;;;5097208;28;20171;-55
2023/01/18 09:28:11;;;;;;;16.13;11.87;;;0.80;99.90;;;;;;5097292;28;20185;-55
2023/01/18 09:30:37;;;;;;;16.13;11.93;;;0.90;99.90;;;;;;5096914;28;20218;-55
2023/01/18 09:33:03;;;;;;;14.87;12.17;;;1.00;99.90;;;;;;5096840;28;20177;-57
2023/01/18 09:35:31;;;;;;;18.00;12.73;;;1.10;99.90;;;;;;5096805;28;20572;-56
2023/01/18 09:37:57;;;;;;;14.03;11.70;;;1.10;99.90;;;;;;5096865;28;20192;-55
2023/01/18 09:40:40;;;;;;;16.40;12.13;;;1.10;99.90;;;;;;5096942;28;20178;-55
2023/01/18 09:43:19;;;;;;;16.93;12.03;;;1.20;99.90;;;;;;5096734;28;20716;-55
2023/01/18 09:45:46;;;;;;;14.93;11.53;;;1.30;99.90;;;;;;5096597;28;20201;-54
2023/01/18 09:48:25;;;;;;;12.57;11.27;;;1.30;99.90;;;;;;5078943;28;20546;-54
2023/01/18 09:50:52;;;;;;;17.67;11.27;;;1.20;99.90;;;;;;5097162;28;20652;-55
2023/01/18 09:54:08;;;;;;;15.70;11.27;;;1.40;99.90;;;;;;5096616;28;20236;-55
2023/01/18 09:56:48;;;;;;;15.17;10.17;;;1.40;99.90;;;;;;4994667;28;20182;-55
2023/01/18 09:59:51;;;;;;;12.60;10.30;;;1.40;99.90;;;;;;5095860;28;20238;-56
2023/01/18 10:02:28;;;;;;;13.63;9.00;;;1.60;99.90;;;;;;5096448;28;20191;-56
2023/01/18 10:05:03;;;;;;;13.53;9.67;;;1.60;99.90;;;;;;5096866;28;20177;-54
2023/01/18 10:07:32;;;;;;;12.87;9.80;;;1.50;99.90;;;;;;5096508;28;20184;-56
2023/01/18 10:10:00;;;;;;;13.87;9.97;;;1.70;99.90;;;;;;5096441;28;20309;-55
2023/01/18 10:12:39;;;;;;;13.30;9.77;;;1.70;99.90;;;;;;5096233;28;20181;-55
2023/01/18 10:15:21;;;;;;;14.80;10.37;;;1.80;99.90;;;;;;5096071;28;20217;-56
2023/01/18 10:17:50;;;;;;;14.70;9.33;;;1.80;99.90;;;;;;5096229;28;20176;-55
2023/01/18 10:20:22;;;;;;;14.00;9.73;;;1.90;99.90;;;;;;5096364;28;20177;-55
2023/01/18 10:23:11;;;;;;;11.10;8.27;;;1.90;99.90;;;;;;5095863;28;20162;-55
2023/01/18 10:26:15;;;;;;;12.40;9.37;;;1.90;99.90;;;;;;5095837;28;20629;-55
2023/01/18 10:28:57;;;;;;;11.60;8.10;;;2.10;99.90;;;;;;5080439;28;20193;-54
2023/01/18 10:31:47;;;;;;;11.37;8.07;;;2.10;99.90;;;;;;5095950;28;20582;-55
2023/01/18 10:34:17;;;;;;;11.90;8.40;;;2.30;99.90;;;;;;5095844;28;20310;-55
2023/01/18 10:36:48;;;;;;;11.30;7.90;;;2.30;99.90;;;;;;5095809;28;20535;-56
2023/01/18 10:39:38;;;;;;;10.67;8.13;;;2.30;99.90;;;;;;5096014;28;20177;-54
2023/01/18 10:42:30;;;;;;;11.47;8.23;;;2.30;99.90;;;;;;5083922;28;20188;-54
2023/01/18 10:44:56;;;;;;;11.50;7.60;;;2.40;99.90;;;;;;5094225;28;20230;-55
2023/01/18 10:47:22;;;;;;;11.03;8.07;;;2.50;99.90;;;;;;5095551;28;20214;-54
2023/01/18 10:49:49;;;;;;;11.33;7.47;;;2.50;99.90;;;;;;5095213;28;20206;-55
2023/01/18 10:52:29;;;;;;;13.50;7.90;;;2.60;99.90;;;;;;5095476;28;20182;-55
2023/01/18 10:55:02;;;;;;;10.17;7.57;;;2.60;99.90;;;;;;5095590;28;20191;-55
2023/01/18 10:57:50;;;;;;;9.90;7.00;;;2.70;99.90;;;;;;5095389;28;20205;-56
2023/01/18 11:00:31;;;;;;;9.20;6.90;;;2.80;99.90;;;;;;5095101;28;20220;-56
2023/01/18 11:02:58;;;;;;;10.50;6.77;;;2.80;99.90;;;;;;5095022;28;20173;-55
2023/01/18 11:05:33;;;;;;;9.50;6.20;;;2.80;99.90;;;;;;5095065;28;20577;-55
2023/01/18 11:08:20;;;;;;;9.27;6.93;;;2.90;99.90;;;;;;5095240;28;20184;-54
2023/01/18 11:11:02;;;;;;;8.43;6.63;;;3.00;99.90;;;;;;5095000;28;20231;-53
2023/01/18 11:13:42;;;;;;;9.23;6.10;;;3.10;99.90;;;;;;5095066;28;20193;-55
2023/01/18 11:16:11;;;;;;;9.63;6.03;;;3.10;99.90;;;;;;5095070;28;20377;-54
2023/01/18 11:18:39;;;;;;;14.10;6.80;;;3.10;99.90;;;;;;5094854;28;20598;-55
2023/01/18 11:21:09;;;;;;;10.13;5.80;;;3.10;99.90;;;;;;5094970;28;20200;-53
2023/01/18 11:23:36;;;;;;;8.73;6.10;;;3.20;99.90;;;;;;5094804;28;20180;-54
2023/01/18 11:26:16;;;;;;;8.33;5.77;;;3.20;99.90;;;;;;5094624;28;20522;-55
2023/01/18 11:28:50;;;;;;;7.77;5.37;;;3.30;99.90;;;;;;5094641;28;20177;-54
2023/01/18 11:31:21;;;;;;;7.23;5.70;;;3.40;99.90;;;;;;5094690;28;20181;-55
2023/01/18 11:33:54;;;;;;;8.50;5.17;;;3.50;99.90;;;;;;5094557;28;20201;-55
2023/01/18 11:36:40;;;;;;;6.80;4.43;;;3.60;99.90;;;;;;5093418;28;20197;-55
2023/01/18 11:39:23;;;;;;;5.07;4.33;;;3.50;99.90;;;;;;5094836;28;20222;-55
2023/01/18 11:41:50;;;;;;;8.80;4.93;;;3.60;99.90;;;;;;5094474;28;20207;-56
2023/01/18 11:44:26;;;;;;;6.83;4.23;;;3.60;99.90;;;;;;5094437;28;20639;-57
2023/01/18 11:46:55;;;;;;;6.43;4.73;;;3.70;99.90;;;;;;5094692;28;20199;-56
2023/01/18 11:49:41;;;;;;;6.05;3.72;;;3.70;99.90;;;;;;5094118;28;20555;-56
2023/01/18 11:52:16;;;;;;;10.60;4.70;;;3.70;99.90;;;;;;5094197;28;20615;-55
2023/01/18 11:54:48;;;;;;;9.13;4.40;;;3.70;99.90;;;;;;5094361;28;20210;-54
2023/01/18 11:57:14;;;;;;;5.67;3.63;;;3.70;99.90;;;;;;5094323;28;20249;-53
2023/01/18 11:59:45;;;;;;;9.15;4.10;;;3.80;99.90;;;;;;5094140;28;20178;-56
2023/01/18 12:02:29;;;;;;;8.55;4.53;;;3.90;99.90;;;;;;5094123;28;20173;-55
2023/01/18 12:05:13;;;;;;;7.17;4.23;;;3.90;99.90;;;;;;5094216;28;20177;-56
2023/01/18 12:07:51;;;;;;;5.60;3.87;;;4.00;99.90;;;;;;5093906;28;20630;-55
2023/01/18 12:10:22;;;;;;;6.20;3.40;;;4.10;99.90;;;;;;5093895;28;20557;-55
2023/01/18 12:13:06;;;;;;;6.85;3.60;;;4.10;99.90;;;;;;5094185;28;20184;-54
2023/01/18 12:15:50;;;;;;;5.37;3.40;;;4.00;99.90;;;;;;5093840;28;20576;-55
2023/01/18 12:18:40;;;;;;;6.38;3.95;;;4.00;99.90;;;;;;5093994;28;20172;-55
2023/01/18 12:21:20;;;;;;;3.88;3.45;;;4.00;99.90;;;;;;5094050;28;20661;-56
2023/01/18 12:23:52;;;;;;;4.90;3.37;;;4.00;99.90;;;;;;5093805;28;20179;-54
2023/01/18 12:26:34;;;;;;;8.27;3.70;;;4.10;99.90;;;;;;5093556;28;20264;-55
2023/01/18 12:29:05;;;;;;;6.68;3.75;;;4.10;99.90;;;;;;5093647;28;20196;-56
2023/01/18 12:31:45;;;;;;;5.13;3.60;;;4.20;99.90;;;;;;5093591;28;20205;-54
2023/01/18 12:34:20;;;;;;;6.95;3.40;;;4.30;99.90;;;;;;5093582;28;20196;-54
2023/01/18 12:37:20;;;;;;;6.38;3.45;;;4.10;99.90;;;;;;5093430;28;20176;-55
2023/01/18 12:40:12;;;;;;;6.18;3.47;;;4.10;99.90;;;;;;5093542;28;20184;-55
2023/01/18 12:42:46;;;;;;;5.95;3.55;;;4.10;99.90;;;;;;5093564;28;20177;-56
2023/01/18 12:45:19;;;;;;;5.70;3.42;;;4.10;99.90;;;;;;5093892;28;20170;-56
2023/01/18 12:48:08;;;;;;;6.93;4.00;;;4.10;99.90;;;;;;5093570;28;20172;-55
2023/01/18 12:50:36;;;;;;;7.63;3.70;;;4.20;99.90;;;;;;5075307;28;20563;-55
2023/01/18 12:53:34;;;;;;;6.97;3.90;;;4.20;99.90;;;;;;5093313;28;20188;-55
2023/01/18 12:56:07;;;;;;;5.63;3.70;;;4.20;99.90;;;;;;5073394;28;20189;-55
2023/01/18 12:58:34;;;;;;;4.93;3.80;;;4.20;99.90;;;;;;5093460;28;20170;-54
2023/01/18 13:01:03;;;;;;;5.28;3.53;;;4.20;99.90;;;;;;5093218;28;20546;-54
2023/01/18 13:03:39;;;;;;;6.72;4.50;;;4.30;99.90;;;;;;5093251;28;20226;-56
2023/01/18 13:06:05;;;;;;;5.75;4.07;;;4.30;99.90;;;;;;5093470;28;20237;-54
2023/01/18 13:08:42;;;;;;;9.10;4.47;;;4.30;99.90;;;;;;5093275;28;20208;-54
2023/01/18 13:11:31;;;;;;;8.18;4.20;;;4.20;99.90;;;;;;5093205;28;20224;-55
2023/01/18 13:14:16;;;;;;;4.65;3.75;;;4.20;99.90;;;;;;5093500;28;20212;-55
2023/01/18 13:16:53;;;;;;;5.22;4.07;;;4.20;99.90;;;;;;5093143;28;20271;-55
2023/01/18 13:19:28;;;;;;;7.33;4.77;;;4.20;99.90;;;;;;5093221;28;20227;-54
2023/01/18 13:22:18;;;;;;;7.43;4.20;;;4.30;99.90;;;;;;5093096;28;20176;-54
2023/01/18 13:25:25;;;;;;;5.43;4.07;;;4.40;99.90;;;;;;5093104;28;20176;-54
2023/01/18 13:28:02;;;;;;;5.93;4.47;;;4.50;99.90;;;;;;5093065;28;20173;-55
2023/01/18 13:30:32;;;;;;;6.20;4.25;;;4.50;99.90;;;;;;5092916;28;20239;-56
2023/01/18 13:32:59;;;;;;;5.85;4.28;;;4.40;99.90;;;;;;5092849;28;20265;-56